Time;durP1;ratioP1;P1;durP2;ratioP2;P2;SDS_P1;SDS_P2;PMS_P1;PMS_P2;Temp;Humidity;BMP_temperature;BMP_pressure;BME280_temperature;BME280_humidity;BME280_pressure;Samples;Min_cycle;Max_cycle;Signal;HPM_P1;HPM_P2
2022/08/30 00:01:01;;;;;;;3.17;2.67;;;19.90;99.90;;;;;;5077175;28;20586;-71
2022/08/30 00:03:46;;;;;;;5.20;3.30;;;19.90;99.90;;;;;;5094935;28;20574;-71
2022/08/30 00:06:15;;;;;;;3.00;2.70;;;19.80;99.90;;;;;;5094763;28;20941;-71
2022/08/30 00:08:43;;;;;;;4.67;3.43;;;19.80;99.90;;;;;;5094251;28;20578;-71
2022/08/30 00:11:14;;;;;;;3.40;2.70;;;19.80;99.90;;;;;;5094258;28;20588;-70
2022/08/30 00:13:43;;;;;;;4.93;2.93;;;19.90;99.90;;;;;;5094310;28;20582;-70
2022/08/30 00:16:11;;;;;;;3.10;2.70;;;19.90;99.90;;;;;;5094809;28;21053;-71
2022/08/30 00:18:38;;;;;;;3.53;2.77;;;19.90;99.90;;;;;;5094630;28;20548;-72
2022/08/30 00:21:05;;;;;;;2.93;2.73;;;19.90;99.90;;;;;;5094723;28;20600;-71
2022/08/30 00:23:32;;;;;;;5.43;3.10;;;19.80;99.90;;;;;;5094322;28;21127;-71
2022/08/30 00:25:59;;;;;;;5.67;3.40;;;19.80;99.90;;;;;;5094047;28;20624;-71
2022/08/30 00:28:26;;;;;;;3.33;3.03;;;19.70;99.90;;;;;;5093828;28;20580;-71
2022/08/30 00:30:52;;;;;;;3.80;2.80;;;19.70;99.90;;;;;;5094064;28;20590;-71
2022/08/30 00:33:19;;;;;;;7.50;3.70;;;19.70;99.90;;;;;;5093891;28;21115;-71
2022/08/30 00:35:45;;;;;;;7.00;3.20;;;19.70;99.90;;;;;;5093838;28;21217;-71
2022/08/30 00:38:13;;;;;;;4.67;3.17;;;19.70;99.90;;;;;;5093932;28;20544;-71
2022/08/30 00:40:42;;;;;;;6.53;2.33;;;19.70;99.90;;;;;;5093834;28;20946;-71
2022/08/30 00:43:18;;;;;;;7.80;3.27;;;19.70;99.90;;;;;;5093211;28;20610;-71
2022/08/30 00:45:44;;;;;;;13.33;3.33;;;19.70;99.90;;;;;;5093728;28;20577;-71
2022/08/30 00:48:11;;;;;;;5.33;3.70;;;19.60;99.90;;;;;;5093237;28;20653;-71
2022/08/30 00:50:48;;;;;;;2.87;2.67;;;19.60;99.90;;;;;;5093363;28;21119;-71
2022/08/30 00:53:27;;;;;;;4.90;3.60;;;19.60;99.90;;;;;;5093767;28;20578;-71
2022/08/30 00:55:54;;;;;;;5.33;3.50;;;19.60;99.90;;;;;;5093246;28;20625;-71
2022/08/30 00:58:26;;;;;;;6.83;3.30;;;19.60;99.90;;;;;;5075662;28;20570;-71
2022/08/30 01:00:55;;;;;;;5.43;2.70;;;19.60;99.90;;;;;;5093616;28;20577;-71
2022/08/30 01:03:22;;;;;;;6.60;3.10;;;19.60;99.90;;;;;;5075903;28;20551;-71
2022/08/30 01:05:50;;;;;;;4.50;3.10;;;19.60;99.90;;;;;;5075316;28;20613;-71
2022/08/30 01:08:19;;;;;;;4.17;3.17;;;19.50;99.90;;;;;;5093539;28;20581;-71
2022/08/30 01:10:45;;;;;;;5.80;3.10;;;19.50;99.90;;;;;;5093498;28;20586;-71
2022/08/30 01:13:13;;;;;;;4.50;2.63;;;19.60;99.90;;;;;;5093211;28;20619;-71
2022/08/30 01:15:43;;;;;;;8.70;3.00;;;19.60;99.90;;;;;;5093328;28;20634;-72
2022/08/30 01:18:10;;;;;;;3.20;2.90;;;19.60;99.90;;;;;;5093374;28;20663;-71
2022/08/30 01:21:15;;;;;;;10.30;3.33;;;19.50;99.90;;;;;;5098920;28;20625;-69
2022/08/30 01:23:44;;;;;;;6.60;3.00;;;19.50;99.90;;;;;;5099942;28;20614;-72
2022/08/30 01:26:12;;;;;;;10.57;3.83;;;19.50;99.90;;;;;;5099790;28;20634;-70
2022/08/30 01:28:40;;;;;;;2.90;2.70;;;19.50;99.90;;;;;;5081318;28;20613;-70
2022/08/30 01:31:07;;;;;;;5.43;2.90;;;19.50;99.90;;;;;;5100143;28;20580;-70
2022/08/30 01:33:37;;;;;;;5.17;2.90;;;19.50;99.90;;;;;;5099105;28;21015;-70
2022/08/30 01:36:09;;;;;;;2.60;2.43;;;19.50;99.90;;;;;;5099220;28;21043;-70
2022/08/30 01:38:38;;;;;;;4.43;3.33;;;19.60;99.90;;;;;;5098991;28;20621;-70
2022/08/30 01:41:35;;;;;;;6.53;3.73;;;19.60;99.90;;;;;;5081515;28;21014;-70
2022/08/30 01:44:09;;;;;;;6.67;2.70;;;19.60;99.90;;;;;;5082800;28;20610;-71
2022/08/30 01:46:41;;;;;;;3.47;2.67;;;19.50;99.90;;;;;;5098803;28;20595;-71
2022/08/30 01:49:11;;;;;;;3.77;2.87;;;19.50;99.90;;;;;;5099652;28;20656;-72
2022/08/30 01:51:38;;;;;;;5.17;3.10;;;19.40;99.90;;;;;;5099626;28;20548;-72
2022/08/30 01:54:05;;;;;;;5.43;2.90;;;19.40;99.90;;;;;;5099532;28;21082;-72
2022/08/30 01:56:32;;;;;;;4.53;3.10;;;19.40;99.90;;;;;;5099134;28;20676;-71
2022/08/30 01:58:58;;;;;;;3.83;2.80;;;19.40;99.90;;;;;;5099845;28;20639;-71
2022/08/30 02:01:27;;;;;;;5.10;3.00;;;19.40;99.90;;;;;;5099468;28;20596;-71
2022/08/30 02:03:55;;;;;;;3.83;3.50;;;19.30;99.90;;;;;;5099669;28;20605;-72
2022/08/30 02:06:22;;;;;;;4.40;3.40;;;19.30;99.90;;;;;;5099693;28;20588;-71
2022/08/30 02:08:49;;;;;;;4.10;3.20;;;19.20;99.90;;;;;;5099726;28;20610;-71
2022/08/30 02:11:16;;;;;;;4.13;2.80;;;19.20;99.90;;;;;;5099643;28;20590;-71
2022/08/30 02:13:44;;;;;;;6.17;4.10;;;19.20;99.90;;;;;;5099806;28;20573;-71
2022/08/30 02:16:14;;;;;;;3.50;2.90;;;19.20;99.90;;;;;;5098971;28;20668;-71
2022/08/30 02:18:41;;;;;;;4.70;2.90;;;19.10;99.90;;;;;;5098586;28;20584;-71
2022/08/30 02:21:08;;;;;;;3.20;2.90;;;19.10;99.90;;;;;;5099642;28;20909;-71
2022/08/30 02:23:35;;;;;;;2.90;2.70;;;19.00;99.90;;;;;;5099585;28;20540;-71
2022/08/30 02:26:03;;;;;;;6.40;2.97;;;19.10;99.90;;;;;;5099557;28;20577;-71
2022/08/30 02:28:30;;;;;;;3.83;3.23;;;19.10;99.90;;;;;;5099157;28;20622;-71
2022/08/30 02:30:57;;;;;;;3.60;3.10;;;19.10;99.90;;;;;;5097173;28;20658;-72
2022/08/30 02:33:23;;;;;;;4.50;2.77;;;19.10;99.90;;;;;;5095926;28;20603;-71
2022/08/30 02:35:49;;;;;;;3.03;2.50;;;19.00;99.90;;;;;;5095863;28;20556;-71
2022/08/30 02:38:16;;;;;;;3.40;2.73;;;19.00;99.90;;;;;;5095895;28;20620;-71
2022/08/30 02:40:43;;;;;;;4.30;3.00;;;19.00;99.90;;;;;;5096260;28;20666;-71
2022/08/30 02:43:10;;;;;;;5.53;2.67;;;19.00;99.90;;;;;;5095788;28;20617;-71
2022/08/30 02:45:37;;;;;;;3.77;3.30;;;19.00;99.90;;;;;;5077390;28;20629;-71
2022/08/30 02:48:04;;;;;;;7.23;3.23;;;19.00;99.90;;;;;;5094169;28;20641;-71
2022/08/30 02:50:30;;;;;;;3.63;2.93;;;19.00;99.90;;;;;;5096072;28;20573;-71
2022/08/30 02:52:57;;;;;;;5.23;4.40;;;18.90;99.90;;;;;;5095918;28;20556;-71
2022/08/30 02:55:23;;;;;;;3.00;2.80;;;19.00;99.90;;;;;;5095538;28;20592;-71
2022/08/30 02:57:50;;;;;;;3.67;3.37;;;19.00;99.90;;;;;;5095786;28;20612;-71
2022/08/30 03:00:18;;;;;;;6.73;2.50;;;18.90;99.90;;;;;;5095479;28;20546;-71
2022/08/30 03:02:45;;;;;;;8.73;3.23;;;18.90;99.90;;;;;;5095272;28;20657;-71
2022/08/30 03:05:13;;;;;;;5.60;3.07;;;18.80;99.90;;;;;;5095303;28;20652;-71
2022/08/30 03:07:41;;;;;;;7.33;3.10;;;18.70;99.90;;;;;;5094986;28;20690;-71
2022/08/30 03:10:08;;;;;;;5.43;3.70;;;18.70;99.90;;;;;;5095103;28;21159;-71
2022/08/30 03:12:35;;;;;;;5.07;2.63;;;18.70;99.90;;;;;;5095399;28;20586;-71
2022/08/30 03:15:02;;;;;;;4.17;2.77;;;18.70;99.90;;;;;;5095216;28;20552;-71
2022/08/30 03:17:29;;;;;;;8.67;3.13;;;18.60;99.90;;;;;;5095230;28;20600;-71
2022/08/30 03:19:59;;;;;;;4.27;2.90;;;18.50;99.90;;;;;;5095044;28;20621;-71
2022/08/30 03:22:25;;;;;;;5.70;3.43;;;18.50;99.90;;;;;;5076639;28;20604;-71
2022/08/30 03:24:52;;;;;;;4.47;3.00;;;18.50;99.90;;;;;;5095306;28;20710;-72
2022/08/30 03:27:19;;;;;;;4.40;3.40;;;18.50;99.90;;;;;;5095512;28;20653;-71
2022/08/30 03:29:45;;;;;;;4.57;3.03;;;18.50;99.90;;;;;;5095122;28;20599;-71
2022/08/30 03:32:12;;;;;;;3.43;2.93;;;18.50;99.90;;;;;;5095171;28;20589;-71
2022/08/30 03:34:38;;;;;;;6.60;3.27;;;18.40;99.90;;;;;;5095229;28;20574;-71
2022/08/30 03:37:05;;;;;;;6.20;3.00;;;18.30;99.90;;;;;;5094280;28;20693;-71
2022/08/30 03:39:31;;;;;;;4.50;3.33;;;18.30;99.90;;;;;;5094519;28;20674;-69
2022/08/30 03:41:58;;;;;;;2.90;2.70;;;18.30;99.90;;;;;;5094379;28;21131;-71
2022/08/30 03:44:24;;;;;;;6.47;4.03;;;18.30;99.90;;;;;;5093284;28;20647;-71
2022/08/30 03:46:51;;;;;;;4.50;2.83;;;18.30;99.90;;;;;;5094610;28;20617;-70
2022/08/30 03:49:19;;;;;;;4.17;3.27;;;18.30;99.90;;;;;;5094288;28;21203;-71
2022/08/30 03:51:47;;;;;;;3.30;3.03;;;18.30;99.90;;;;;;5075906;28;20617;-70
2022/08/30 03:54:13;;;;;;;3.73;2.80;;;18.30;99.90;;;;;;5094109;28;20652;-70
2022/08/30 03:56:40;;;;;;;6.43;2.87;;;18.40;99.90;;;;;;5094574;28;20676;-71
2022/08/30 03:59:07;;;;;;;3.50;3.10;;;18.40;99.90;;;;;;5094573;28;20663;-69
2022/08/30 04:01:33;;;;;;;7.97;3.13;;;18.50;99.90;;;;;;5094499;28;20578;-70
2022/08/30 04:04:00;;;;;;;7.50;3.20;;;18.50;99.90;;;;;;5093638;28;21154;-70
2022/08/30 04:06:27;;;;;;;4.20;2.93;;;18.50;99.90;;;;;;5094368;28;21019;-70
2022/08/30 04:08:53;;;;;;;3.10;2.80;;;18.50;99.90;;;;;;5093811;28;20592;-71
2022/08/30 04:11:20;;;;;;;3.57;3.27;;;18.50;99.90;;;;;;5076610;28;20938;-71
2022/08/30 04:13:50;;;;;;;3.20;2.83;;;18.50;99.90;;;;;;5075764;28;21139;-72
2022/08/30 04:16:19;;;;;;;3.17;2.60;;;18.50;99.90;;;;;;5093495;28;20637;-70
2022/08/30 04:18:46;;;;;;;11.30;3.47;;;18.40;99.90;;;;;;5093747;28;21135;-71
2022/08/30 04:21:12;;;;;;;4.73;3.20;;;18.40;99.90;;;;;;5093760;28;20969;-71
2022/08/30 04:23:39;;;;;;;3.57;2.83;;;18.40;99.90;;;;;;5075592;28;20574;-71
2022/08/30 04:26:05;;;;;;;4.17;3.50;;;18.30;99.90;;;;;;5093786;28;20579;-71
2022/08/30 04:28:33;;;;;;;9.13;3.30;;;18.30;99.90;;;;;;5093651;28;21004;-71
2022/08/30 04:31:07;;;;;;;12.20;3.60;;;18.20;99.90;;;;;;5093627;28;20552;-71
2022/08/30 04:33:34;;;;;;;9.23;3.30;;;18.20;99.90;;;;;;5094019;28;20961;-71
2022/08/30 04:36:03;;;;;;;5.57;3.50;;;18.20;99.90;;;;;;5093792;28;20686;-71
2022/08/30 04:38:31;;;;;;;3.37;3.07;;;18.20;99.90;;;;;;5093863;28;20577;-71
2022/08/30 04:40:59;;;;;;;3.90;3.50;;;18.20;99.90;;;;;;5093851;28;20679;-71
2022/08/30 04:43:26;;;;;;;6.10;3.13;;;18.20;99.90;;;;;;5093459;28;20625;-71
2022/08/30 04:45:54;;;;;;;4.03;2.80;;;18.10;99.90;;;;;;5093743;28;20570;-71
2022/08/30 04:48:21;;;;;;;6.57;3.10;;;18.10;99.90;;;;;;5093336;28;20717;-71
2022/08/30 04:50:48;;;;;;;5.73;4.27;;;18.00;99.90;;;;;;5093376;28;20648;-71
2022/08/30 04:53:15;;;;;;;3.40;3.10;;;18.00;99.90;;;;;;5093283;28;21041;-71
2022/08/30 04:55:42;;;;;;;4.53;3.33;;;18.00;99.90;;;;;;5093474;28;20573;-71
2022/08/30 04:58:10;;;;;;;4.33;3.27;;;18.10;99.90;;;;;;5092845;28;20661;-71
2022/08/30 05:00:36;;;;;;;8.53;3.03;;;18.10;99.90;;;;;;5075348;28;20585;-71
2022/08/30 05:03:03;;;;;;;5.77;3.33;;;18.10;99.90;;;;;;5093146;28;20592;-71
2022/08/30 05:05:39;;;;;;;7.47;2.93;;;18.10;99.90;;;;;;5092436;28;20653;-71
2022/08/30 05:08:11;;;;;;;4.30;3.27;;;18.00;99.90;;;;;;5093460;28;20658;-71
2022/08/30 05:10:43;;;;;;;6.60;3.40;;;18.10;99.90;;;;;;5093245;28;21000;-71
2022/08/30 05:13:10;;;;;;;3.40;2.60;;;18.20;99.90;;;;;;5093042;28;20628;-71
2022/08/30 05:15:38;;;;;;;7.23;3.40;;;18.20;99.90;;;;;;5093152;28;20585;-71
2022/08/30 05:18:09;;;;;;;4.10;3.40;;;18.10;99.90;;;;;;5075062;28;20668;-71
2022/08/30 05:20:36;;;;;;;8.23;3.40;;;18.00;99.90;;;;;;5093405;28;20942;-71
2022/08/30 05:23:04;;;;;;;5.07;2.97;;;17.90;99.90;;;;;;5093381;28;20573;-71
2022/08/30 05:25:35;;;;;;;7.57;2.97;;;17.90;99.90;;;;;;5093004;28;21224;-71
2022/08/30 05:28:01;;;;;;;6.83;2.97;;;17.90;99.90;;;;;;5093257;28;21109;-71
2022/08/30 05:30:31;;;;;;;6.70;3.10;;;17.90;99.90;;;;;;5093222;28;20642;-71
2022/08/30 05:32:58;;;;;;;3.33;3.00;;;18.00;99.90;;;;;;5092821;28;20997;-71
2022/08/30 05:35:25;;;;;;;4.30;2.77;;;18.10;99.90;;;;;;5093182;28;20757;-71
2022/08/30 05:37:52;;;;;;;3.77;2.77;;;18.00;99.90;;;;;;5091224;28;20716;-71
2022/08/30 05:40:19;;;;;;;6.90;3.53;;;18.10;99.90;;;;;;5093244;28;20585;-71
2022/08/30 05:42:46;;;;;;;8.90;3.30;;;18.10;99.90;;;;;;5074433;28;20616;-71
2022/08/30 05:45:13;;;;;;;6.17;3.70;;;18.10;99.90;;;;;;5093059;28;20573;-71
2022/08/30 05:47:40;;;;;;;8.83;3.37;;;18.00;99.90;;;;;;5092190;28;20608;-71
2022/08/30 05:50:08;;;;;;;11.57;3.50;;;18.10;99.90;;;;;;5092699;28;20559;-71
2022/08/30 05:52:40;;;;;;;5.40;3.23;;;18.20;99.90;;;;;;5093168;28;20552;-76
2022/08/30 05:55:08;;;;;;;8.10;3.50;;;18.10;99.90;;;;;;5099298;28;20610;-73
2022/08/30 05:57:36;;;;;;;3.43;3.03;;;18.10;99.90;;;;;;5075706;28;20676;-73
2022/08/30 06:00:10;;;;;;;7.40;3.87;;;18.10;99.90;;;;;;5092847;28;20648;-73
2022/08/30 06:02:37;;;;;;;11.47;3.67;;;18.00;99.90;;;;;;5094170;28;20558;-74
2022/08/30 06:05:04;;;;;;;5.60;3.60;;;18.20;99.90;;;;;;5092680;28;20562;-73
2022/08/30 06:07:30;;;;;;;4.07;3.37;;;18.10;99.90;;;;;;5096202;28;20703;-74
2022/08/30 06:09:57;;;;;;;9.57;3.63;;;18.30;99.90;;;;;;5096363;28;20581;-73
2022/08/30 06:12:23;;;;;;;10.07;3.30;;;18.20;99.90;;;;;;5096123;28;20600;-74
2022/08/30 06:14:49;;;;;;;10.10;4.00;;;18.30;99.90;;;;;;5096343;28;20558;-74
2022/08/30 06:17:16;;;;;;;6.00;3.47;;;18.40;99.90;;;;;;5077995;28;20656;-74
2022/08/30 06:19:42;;;;;;;10.50;3.37;;;18.50;99.90;;;;;;5096675;28;20543;-74
2022/08/30 06:22:09;;;;;;;7.43;4.00;;;18.60;99.90;;;;;;5096435;28;20881;-74
2022/08/30 06:24:35;;;;;;;8.27;3.23;;;18.50;99.90;;;;;;5097672;28;20695;-73
2022/08/30 06:27:02;;;;;;;5.10;3.10;;;18.50;99.90;;;;;;5101029;28;20930;-74
2022/08/30 06:29:28;;;;;;;5.13;3.53;;;18.60;99.90;;;;;;5100507;28;20553;-73
2022/08/30 06:31:56;;;;;;;6.00;4.17;;;18.70;99.90;;;;;;5101798;28;20618;-73
2022/08/30 06:34:23;;;;;;;3.13;2.93;;;18.80;99.90;;;;;;5099174;28;20573;-73
2022/08/30 06:36:49;;;;;;;4.43;3.50;;;18.80;99.90;;;;;;5100504;28;21045;-74
2022/08/30 06:39:16;;;;;;;3.07;2.80;;;18.90;99.90;;;;;;5097719;28;20610;-74
2022/08/30 06:41:42;;;;;;;7.97;3.47;;;18.90;99.90;;;;;;5100929;28;20625;-74
2022/08/30 06:44:08;;;;;;;7.63;3.60;;;19.00;99.90;;;;;;5082742;28;20623;-73
2022/08/30 06:46:37;;;;;;;3.87;3.57;;;19.00;99.90;;;;;;5098677;28;20712;-73
2022/08/30 06:49:05;;;;;;;6.50;3.33;;;19.20;99.90;;;;;;5099432;28;21216;-73
2022/08/30 06:51:35;;;;;;;9.33;4.20;;;19.10;99.90;;;;;;5080656;28;21223;-73
2022/08/30 06:54:03;;;;;;;6.10;3.27;;;19.30;99.90;;;;;;5102452;28;20712;-74
2022/08/30 06:56:30;;;;;;;4.13;3.30;;;19.20;99.90;;;;;;5096671;28;21241;-74
2022/08/30 06:58:57;;;;;;;9.23;3.40;;;19.40;99.90;;;;;;5097576;28;21183;-72
2022/08/30 07:01:26;;;;;;;6.93;3.37;;;19.30;99.90;;;;;;5097514;28;20544;-73
2022/08/30 07:03:54;;;;;;;12.50;3.20;;;19.40;99.90;;;;;;5095666;28;20560;-75
2022/08/30 07:06:22;;;;;;;3.90;3.60;;;19.50;99.90;;;;;;5077337;28;20658;-75
2022/08/30 07:08:49;;;;;;;11.40;3.27;;;19.70;99.90;;;;;;5095004;28;21197;-75
2022/08/30 07:11:25;;;;;;;5.03;3.23;;;19.80;99.90;;;;;;5095272;28;20617;-74
2022/08/30 07:13:52;;;;;;;9.40;4.20;;;19.90;99.90;;;;;;5076915;28;20631;-74
2022/08/30 07:16:19;;;;;;;8.20;3.40;;;20.10;99.90;;;;;;5095388;28;20933;-74
2022/08/30 07:18:53;;;;;;;4.50;3.37;;;20.40;99.90;;;;;;5094940;28;20619;-74
2022/08/30 07:21:26;;;;;;;8.03;3.70;;;20.60;99.90;;;;;;5094882;28;21193;-73
2022/08/30 07:23:56;;;;;;;7.30;4.50;;;20.60;99.90;;;;;;5095075;28;20641;-72
2022/08/30 07:26:32;;;;;;;7.33;3.23;;;20.60;99.90;;;;;;5095343;28;20616;-73
2022/08/30 07:28:59;;;;;;;5.77;4.17;;;20.80;99.90;;;;;;5095170;28;20597;-72
2022/08/30 07:31:25;;;;;;;11.07;4.40;;;20.70;99.90;;;;;;5095304;28;20578;-72
2022/08/30 07:33:52;;;;;;;11.00;4.50;;;20.80;99.90;;;;;;5076641;28;20636;-72
2022/08/30 07:36:20;;;;;;;15.00;4.20;;;21.00;99.90;;;;;;5095137;28;20610;-73
2022/08/30 07:38:48;;;;;;;5.97;3.77;;;21.10;99.90;;;;;;5096362;28;20657;-72
2022/08/30 07:41:18;;;;;;;5.33;3.07;;;21.30;99.90;;;;;;5096558;28;20691;-73
2022/08/30 07:43:45;;;;;;;3.97;3.67;;;21.50;99.90;;;;;;5095784;28;21148;-73
2022/08/30 07:46:11;;;;;;;9.00;3.27;;;21.60;99.90;;;;;;5095561;28;20582;-73
2022/08/30 07:48:38;;;;;;;7.10;4.17;;;21.80;99.90;;;;;;5101919;28;20641;-72
2022/08/30 07:51:10;;;;;;;7.37;5.00;;;22.20;99.90;;;;;;5097027;28;20589;-72
2022/08/30 07:53:36;;;;;;;4.50;3.40;;;21.90;99.90;;;;;;5076497;28;20621;-72
2022/08/30 07:56:03;;;;;;;9.33;3.50;;;21.90;99.90;;;;;;5095869;28;20736;-72
2022/08/30 07:58:29;;;;;;;8.87;3.43;;;22.00;99.90;;;;;;5096017;28;20636;-73
2022/08/30 08:00:58;;;;;;;7.80;4.90;;;22.20;99.90;;;;;;5094499;28;20934;-73
2022/08/30 08:03:25;;;;;;;5.47;3.40;;;22.30;99.90;;;;;;5094122;28;20614;-74
2022/08/30 08:05:52;;;;;;;5.63;3.47;;;22.40;99.90;;;;;;5095997;28;20624;-72
2022/08/30 08:08:19;;;;;;;8.93;3.13;;;22.50;99.90;;;;;;5095711;28;20627;-74
2022/08/30 08:10:45;;;;;;;11.73;4.33;;;22.50;99.90;;;;;;5095974;28;20958;-72
2022/08/30 08:13:12;;;;;;;6.07;3.50;;;22.50;99.90;;;;;;5094406;28;20594;-72
2022/08/30 08:15:39;;;;;;;7.77;3.87;;;22.20;99.90;;;;;;5094230;28;20578;-73
2022/08/30 08:18:06;;;;;;;7.93;4.27;;;22.00;99.90;;;;;;5094057;28;20656;-73
2022/08/30 08:20:34;;;;;;;5.90;3.33;;;22.00;99.90;;;;;;5094068;28;20903;-74
2022/08/30 08:23:01;;;;;;;4.67;3.30;;;22.10;99.90;;;;;;5094239;28;20577;-74
2022/08/30 08:25:28;;;;;;;6.90;3.70;;;22.20;99.90;;;;;;5095021;28;20629;-74
2022/08/30 08:27:55;;;;;;;6.77;3.97;;;22.20;99.90;;;;;;5075910;28;20624;-73
2022/08/30 08:30:22;;;;;;;3.97;3.57;;;22.30;99.90;;;;;;5093513;28;20582;-73
2022/08/30 08:32:49;;;;;;;7.70;3.63;;;22.30;99.90;;;;;;5094085;28;20614;-73
2022/08/30 08:35:17;;;;;;;5.07;4.33;;;22.50;99.90;;;;;;5093235;28;20628;-72
2022/08/30 08:37:43;;;;;;;7.27;4.17;;;22.70;99.90;;;;;;5096286;28;21046;-73
2022/08/30 08:40:14;;;;;;;11.80;3.57;;;22.90;99.90;;;;;;5094700;28;20570;-72
2022/08/30 08:42:41;;;;;;;8.20;3.57;;;23.20;99.90;;;;;;5096404;28;20585;-73
2022/08/30 08:45:13;;;;;;;9.20;3.50;;;23.50;99.90;;;;;;5093960;28;20581;-73
2022/08/30 08:48:29;;;;;;;7.73;3.40;;;23.50;99.90;;;;;;5092659;28;20617;-73
2022/08/30 08:53:46;;;;;;;7.60;4.07;;;23.70;99.90;;;;;;5094285;28;20581;-73
2022/08/30 08:56:16;;;;;;;5.07;3.50;;;23.50;99.90;;;;;;5093360;28;20621;-73
2022/08/30 08:58:45;;;;;;;6.97;4.00;;;23.80;99.90;;;;;;5094283;28;20999;-73
2022/08/30 09:01:15;;;;;;;5.27;3.40;;;24.10;99.90;;;;;;5094252;28;21021;-75
2022/08/30 09:03:42;;;;;;;10.00;3.77;;;24.20;99.90;;;;;;5094562;28;20605;-73
2022/08/30 09:06:33;;;;;;;6.20;4.23;;;24.10;99.90;;;;;;5093372;28;20636;-72
2022/08/30 09:08:59;;;;;;;6.47;3.90;;;24.30;99.90;;;;;;5094704;28;20584;-74
2022/08/30 09:11:31;;;;;;;5.30;4.13;;;24.20;99.90;;;;;;5093354;28;20589;-74
2022/08/30 09:13:58;;;;;;;6.73;3.70;;;24.40;99.90;;;;;;5092951;28;20628;-74
2022/08/30 09:17:12;;;;;;;6.57;4.30;;;24.50;99.90;;;;;;5093183;28;20577;-73
2022/08/30 09:19:57;;;;;;;7.90;4.10;;;24.90;99.90;;;;;;5075785;28;21172;-73
2022/08/30 09:22:31;;;;;;;15.30;4.70;;;24.90;99.90;;;;;;5093707;28;20624;-75
2022/08/30 09:25:16;;;;;;;6.37;4.03;;;25.20;99.90;;;;;;5093956;28;20629;-76
2022/08/30 09:27:48;;;;;;;3.93;3.50;;;25.50;99.90;;;;;;5093678;28;20647;-76
2022/08/30 09:30:17;;;;;;;5.13;4.63;;;25.20;99.90;;;;;;5093895;28;21032;-75
2022/08/30 09:32:51;;;;;;;9.73;4.23;;;24.80;99.90;;;;;;5093694;28;20621;-74
2022/08/30 09:35:22;;;;;;;4.50;4.10;;;25.10;99.90;;;;;;5093566;28;20938;-75
2022/08/30 09:37:55;;;;;;;9.70;4.83;;;25.20;99.90;;;;;;5093312;28;20957;-75
2022/08/30 09:40:45;;;;;;;9.43;4.50;;;25.50;99.90;;;;;;5094214;28;20678;-76
2022/08/30 09:43:30;;;;;;;4.73;4.20;;;25.50;99.90;;;;;;5097461;28;21085;-73
2022/08/30 09:46:00;;;;;;;10.30;4.13;;;25.40;99.90;;;;;;5097277;28;20884;-74
2022/08/30 09:48:32;;;;;;;9.33;3.90;;;25.20;99.90;;;;;;5078920;28;20991;-73
2022/08/30 09:51:10;;;;;;;7.47;4.10;;;25.30;99.90;;;;;;5096908;28;20578;-73
2022/08/30 09:53:48;;;;;;;11.13;4.83;;;25.70;99.90;;;;;;5097012;28;20978;-73
2022/08/30 09:56:36;;;;;;;8.50;3.93;;;26.20;99.90;;;;;;5097499;28;20574;-73
2022/08/30 09:59:38;;;;;;;6.63;4.33;;;26.40;99.90;;;;;;5096697;28;20625;-72
2022/08/30 10:02:23;;;;;;;7.60;4.83;;;26.70;99.90;;;;;;5078330;28;20620;-73
2022/08/30 10:05:14;;;;;;;6.07;4.37;;;27.10;99.90;;;;;;5097260;28;20647;-73
2022/08/30 10:07:57;;;;;;;7.60;3.90;;;26.80;99.90;;;;;;5096689;28;20580;-73
2022/08/30 10:10:35;;;;;;;5.53;4.20;;;26.90;99.90;;;;;;5095902;28;20624;-73
2022/08/30 10:13:38;;;;;;;5.53;4.30;;;27.10;99.90;;;;;;5096978;28;20585;-72
2022/08/30 10:16:26;;;;;;;9.00;3.90;;;27.10;99.90;;;;;;5078142;28;21199;-74
2022/08/30 10:19:15;;;;;;;10.33;4.07;;;27.10;99.90;;;;;;5096367;28;21218;-73
2022/08/30 10:22:17;;;;;;;4.00;3.70;;;27.40;99.90;;;;;;5096458;28;21147;-73
2022/08/30 10:24:52;;;;;;;7.03;4.53;;;27.40;99.90;;;;;;5096183;28;20633;-72
2022/08/30 10:27:42;;;;;;;9.73;4.33;;;27.30;99.90;;;;;;5096234;28;20583;-73
2022/08/30 10:30:13;;;;;;;5.00;4.00;;;27.70;99.90;;;;;;5096098;28;20675;-73
2022/08/30 10:32:57;;;;;;;6.30;4.40;;;28.40;99.90;;;;;;5077687;28;20632;-73
2022/08/30 10:35:35;;;;;;;4.53;4.10;;;28.60;99.90;;;;;;5096121;28;21074;-74
2022/08/30 10:38:22;;;;;;;9.07;3.90;;;28.70;99.90;;;;;;5095980;28;20624;-73
2022/08/30 10:41:12;;;;;;;9.77;4.80;;;28.50;99.90;;;;;;5095270;28;20643;-73
2022/08/30 10:43:56;;;;;;;6.40;4.70;;;28.70;99.90;;;;;;5096121;28;20949;-73
2022/08/30 10:46:48;;;;;;;12.80;6.53;;;28.60;99.90;;;;;;5096204;28;20577;-73
2022/08/30 10:49:18;;;;;;;6.13;4.77;;;28.80;99.90;;;;;;5095553;28;21007;-73
2022/08/30 10:51:59;;;;;;;7.43;5.30;;;29.00;99.90;;;;;;5094741;28;20959;-73
2022/08/30 10:54:41;;;;;;;6.17;4.67;;;28.90;99.90;;;;;;5095773;28;20635;-73
2022/08/30 10:57:08;;;;;;;6.30;4.30;;;28.90;99.90;;;;;;5095397;28;20621;-73
2022/08/30 10:59:44;;;;;;;6.53;4.83;;;29.10;99.90;;;;;;5095607;28;20621;-73
2022/08/30 11:02:19;;;;;;;8.20;4.50;;;29.20;99.90;;;;;;5095453;28;20995;-73
2022/08/30 11:05:17;;;;;;;6.40;4.53;;;29.40;99.90;;;;;;5077499;28;20681;-73
2022/08/30 11:08:10;;;;;;;6.50;4.67;;;29.10;99.90;;;;;;5095513;28;20958;-72
2022/08/30 11:11:11;;;;;;;6.03;5.47;;;29.40;99.90;;;;;;5092666;28;20686;-73
2022/08/30 11:13:40;;;;;;;5.60;4.73;;;29.30;99.90;;;;;;5095851;28;20586;-74
2022/08/30 11:16:15;;;;;;;5.23;4.63;;;29.90;99.90;;;;;;5094626;28;20628;-74
2022/08/30 11:18:55;;;;;;;5.17;4.70;;;29.90;99.90;;;;;;5095173;28;21044;-74
2022/08/30 11:21:31;;;;;;;7.20;5.90;;;29.80;99.90;;;;;;5095187;28;20609;-74
2022/08/30 11:24:02;;;;;;;12.47;5.30;;;30.10;99.90;;;;;;5095499;28;20636;-74
2022/08/30 11:26:44;;;;;;;4.90;4.50;;;30.00;99.90;;;;;;5095680;28;20605;-73
2022/08/30 11:29:31;;;;;;;8.20;4.77;;;30.60;99.90;;;;;;5077292;28;20632;-73
2022/08/30 11:32:13;;;;;;;7.23;5.20;;;30.70;99.90;;;;;;5095056;28;20613;-73
2022/08/30 11:34:45;;;;;;;9.57;5.40;;;30.70;99.90;;;;;;5094976;28;20641;-73
2022/08/30 11:37:34;;;;;;;6.60;5.00;;;31.10;99.90;;;;;;5095749;28;20675;-73
2022/08/30 11:40:25;;;;;;;5.73;5.00;;;30.80;99.90;;;;;;5095456;28;20625;-73
2022/08/30 11:42:53;;;;;;;9.20;5.10;;;30.80;99.90;;;;;;5084699;28;20629;-73
2022/08/30 11:45:22;;;;;;;5.63;5.13;;;31.20;99.90;;;;;;5095357;28;20605;-72
2022/08/30 11:48:08;;;;;;;5.57;4.73;;;30.90;99.90;;;;;;5094800;28;20645;-72
2022/08/30 11:50:38;;;;;;;8.63;5.07;;;30.70;99.90;;;;;;5094567;28;20614;-73
2022/08/30 11:53:13;;;;;;;5.97;5.57;;;31.90;99.90;;;;;;5094785;28;21056;-73
2022/08/30 11:56:03;;;;;;;9.93;5.57;;;31.70;99.90;;;;;;5076592;28;20681;-73
2022/08/30 11:59:06;;;;;;;10.73;5.23;;;31.90;99.90;;;;;;5094846;28;21203;-73
2022/08/30 12:01:36;;;;;;;6.53;5.40;;;32.50;99.90;;;;;;5094339;28;20686;-72
2022/08/30 12:04:20;;;;;;;8.30;5.17;;;33.00;99.90;;;;;;5094783;28;20644;-73
2022/08/30 12:06:51;;;;;;;6.57;5.20;;;32.40;99.90;;;;;;5095012;28;20578;-72
2022/08/30 12:09:23;;;;;;;6.10;5.50;;;32.70;99.90;;;;;;5094845;28;21103;-72
2022/08/30 12:12:06;;;;;;;9.90;5.90;;;33.20;99.90;;;;;;5095012;28;21083;-73
2022/08/30 12:14:53;;;;;;;9.73;5.57;;;33.20;99.90;;;;;;5094860;28;20952;-73
2022/08/30 12:20:46;;;;;;;8.20;4.80;;;33.40;99.90;;;;;;5094600;28;20589;-73
2022/08/30 12:23:45;;;;;;;5.90;5.50;;;32.90;99.90;;;;;;5094626;28;21115;-72
2022/08/30 12:26:25;;;;;;;7.03;5.17;;;33.40;99.90;;;;;;5095042;28;20903;-73
2022/08/30 12:29:12;;;;;;;5.47;5.07;;;33.00;99.90;;;;;;5094948;28;20589;-73
2022/08/30 12:31:47;;;;;;;7.07;4.93;;;33.30;99.90;;;;;;5094581;28;21081;-73
2022/08/30 12:34:34;;;;;;;5.40;4.97;;;34.00;99.90;;;;;;5094537;28;20578;-73
2022/08/30 12:37:03;;;;;;;6.37;5.73;;;33.80;99.90;;;;;;5094013;28;21221;-73
2022/08/30 12:39:33;;;;;;;5.87;5.10;;;33.20;99.90;;;;;;5093899;28;20669;-74
2022/08/30 12:42:20;;;;;;;5.47;5.07;;;33.60;99.90;;;;;;5075601;28;20935;-72
2022/08/30 12:44:51;;;;;;;5.30;5.00;;;33.20;99.90;;;;;;5093706;28;20605;-72
2022/08/30 12:47:26;;;;;;;6.23;4.87;;;33.10;99.90;;;;;;5094754;28;20598;-73
2022/08/30 12:49:55;;;;;;;6.00;5.50;;;33.40;99.90;;;;;;5073328;28;20621;-74
2022/08/30 12:52:30;;;;;;;5.30;4.90;;;34.30;99.90;;;;;;5073005;28;20644;-71
2022/08/30 12:55:10;;;;;;;5.13;4.83;;;33.70;99.90;;;;;;5074748;28;20582;-74
2022/08/30 12:57:42;;;;;;;7.90;5.20;;;33.80;99.90;;;;;;5074440;28;20644;-73
2022/08/30 13:00:11;;;;;;;5.53;5.03;;;32.80;99.90;;;;;;5055364;28;20665;-74
2022/08/30 13:02:44;;;;;;;6.67;6.07;;;33.60;99.90;;;;;;5073656;28;20590;-73
2022/08/30 13:05:31;;;;;;;6.30;4.90;;;33.60;99.90;;;;;;5073667;28;20680;-73
2022/08/30 13:08:35;;;;;;;8.47;5.33;;;33.60;99.90;;;;;;5074104;28;20571;-74
2022/08/30 13:11:25;;;;;;;6.03;4.90;;;34.10;99.90;;;;;;5032230;28;20618;-74
2022/08/30 13:14:30;;;;;;;5.73;5.23;;;34.00;99.90;;;;;;5074147;28;20563;-73
2022/08/30 13:17:08;;;;;;;5.67;5.10;;;33.40;99.90;;;;;;5073678;28;20636;-74